createdAt,value
2023-03-20T00:01:39.842Z,22.65
2023-03-20T00:04:06.432Z,23.63
2023-03-20T00:06:33.032Z,24.27
2023-03-20T00:08:59.605Z,21.75
2023-03-20T00:11:41.290Z,21.80
2023-03-20T00:14:14.515Z,21.20
2023-03-20T00:16:43.839Z,20.33
2023-03-20T00:19:17.528Z,21.83
2023-03-20T00:24:13.718Z,19.95
2023-03-20T00:26:40.740Z,19.88
2023-03-20T00:29:11.844Z,19.05
2023-03-20T00:31:39.829Z,18.85
2023-03-20T00:34:12.996Z,18.83
2023-03-20T00:36:39.741Z,17.25
2023-03-20T00:39:06.802Z,19.13
2023-03-20T00:41:39.063Z,17.25
2023-03-20T00:44:27.962Z,16.80
2023-03-20T00:47:11.380Z,16.83
2023-03-20T00:49:38.364Z,15.82
2023-03-20T00:52:05.686Z,16.75
2023-03-20T00:54:32.541Z,17.02
2023-03-20T00:57:07.826Z,15.85
2023-03-20T00:59:38.277Z,15.40
2023-03-20T01:02:05.169Z,16.80
2023-03-20T01:04:37.893Z,15.65
2023-03-20T01:07:05.560Z,15.25
2023-03-20T01:09:32.133Z,14.65
2023-03-20T01:12:03.113Z,13.98
2023-03-20T01:14:30.057Z,13.63
2023-03-20T01:16:56.630Z,14.70
2023-03-20T01:19:23.181Z,13.60
2023-03-20T01:21:50.245Z,13.52
2023-03-20T01:24:16.746Z,14.05
2023-03-20T01:26:44.962Z,13.60
2023-03-20T01:29:23.499Z,12.57
2023-03-20T01:31:51.878Z,12.45
2023-03-20T01:34:19.706Z,12.50
2023-03-20T01:36:51.572Z,12.02
2023-03-20T01:39:19.272Z,12.30
2023-03-20T01:41:47.130Z,12.07
2023-03-20T01:44:19.926Z,12.05
2023-03-20T01:46:46.784Z,11.60
2023-03-20T01:49:19.167Z,11.95
2023-03-20T01:51:46.714Z,11.40
2023-03-20T01:54:16.628Z,11.07
2023-03-20T01:56:50.999Z,11.55
2023-03-20T01:59:24.628Z,11.05
2023-03-20T02:01:51.244Z,10.90
2023-03-20T02:04:21.311Z,9.77
2023-03-20T02:06:48.061Z,11.20
2023-03-20T02:09:14.687Z,10.15
2023-03-20T02:11:43.587Z,9.88
2023-03-20T02:14:11.198Z,10.18
2023-03-20T02:16:37.751Z,9.48
2023-03-20T02:19:07.730Z,9.68
2023-03-20T02:21:58.622Z,10.48
2023-03-20T02:24:46.115Z,9.50
2023-03-20T02:27:38.862Z,9.85
2023-03-20T02:30:24.392Z,9.60
2023-03-20T02:33:09.668Z,9.05
2023-03-20T02:35:54.325Z,9.70
2023-03-20T02:38:33.193Z,8.88
2023-03-20T02:41:30.635Z,9.68
2023-03-20T02:44:12.957Z,9.25
2023-03-20T02:46:51.314Z,7.95
2023-03-20T02:49:42.562Z,7.38
2023-03-20T02:52:24.292Z,8.25
2023-03-20T02:55:08.625Z,8.20
2023-03-20T02:57:41.174Z,8.02
2023-03-20T03:00:21.309Z,7.95
2023-03-20T03:02:58.430Z,7.90
2023-03-20T03:05:32.318Z,7.22
2023-03-20T03:08:02.768Z,7.50
2023-03-20T03:10:36.905Z,7.13
2023-03-20T03:13:07.780Z,7.45
2023-03-20T03:15:45.316Z,7.32
2023-03-20T03:18:17.480Z,7.25
2023-03-20T03:20:45.798Z,7.88
2023-03-20T03:23:26.790Z,7.00
2023-03-20T03:25:55.791Z,6.50
2023-03-20T03:28:29.912Z,7.18
2023-03-20T03:30:58.954Z,6.80
2023-03-20T03:33:29.667Z,7.03
2023-03-20T03:36:08.736Z,6.90
2023-03-20T03:38:45.988Z,6.18
2023-03-20T03:41:18.463Z,6.13
2023-03-20T03:44:05.356Z,6.95
2023-03-20T03:46:53.146Z,7.35
2023-03-20T03:49:26.417Z,6.53
2023-03-20T03:51:58.482Z,7.65
2023-03-20T03:54:31.305Z,7.20
2023-03-20T03:57:01.283Z,6.50
2023-03-20T03:59:37.830Z,6.57
2023-03-20T04:02:08.491Z,5.82
2023-03-20T04:04:40.397Z,6.40
2023-03-20T04:07:06.923Z,6.53
2023-03-20T04:09:33.673Z,6.30
2023-03-20T04:12:00.356Z,6.47
2023-03-20T04:14:27.266Z,5.90
2023-03-20T04:16:53.758Z,5.72
2023-03-20T04:19:20.293Z,6.25
2023-03-20T04:21:47.040Z,6.38
2023-03-20T04:24:13.623Z,6.15
2023-03-20T04:26:40.491Z,6.28
2023-03-20T04:29:07.043Z,5.68
2023-03-20T04:31:33.658Z,5.65
2023-03-20T04:34:00.266Z,6.00
2023-03-20T04:36:26.792Z,5.78
2023-03-20T04:38:55.213Z,5.10
2023-03-20T04:41:23.592Z,5.72
2023-03-20T04:43:50.212Z,5.10
2023-03-20T04:46:16.856Z,5.68
2023-03-20T04:48:43.464Z,6.00
2023-03-20T04:51:10.400Z,5.10
2023-03-20T04:53:37.151Z,4.75
2023-03-20T04:56:03.751Z,5.22
2023-03-20T04:58:30.282Z,5.30
2023-03-20T05:00:56.878Z,5.10
2023-03-20T05:03:24.209Z,5.32
2023-03-20T05:05:51.014Z,5.15
2023-03-20T05:08:17.597Z,5.30
2023-03-20T05:10:44.222Z,5.38
2023-03-20T05:13:10.977Z,5.38
2023-03-20T05:15:37.865Z,4.68
2023-03-20T05:18:04.531Z,5.57
2023-03-20T05:20:31.162Z,4.88
2023-03-20T05:22:57.641Z,4.85
2023-03-20T05:25:24.143Z,4.72
2023-03-20T05:27:50.665Z,4.70
2023-03-20T05:30:17.556Z,5.10
2023-03-20T05:32:44.212Z,5.13
2023-03-20T05:35:11.377Z,5.22
2023-03-20T05:37:39.485Z,4.50
2023-03-20T05:40:07.280Z,5.13
2023-03-20T05:42:33.882Z,4.20
2023-03-20T05:45:00.573Z,5.32
2023-03-20T05:47:27.203Z,5.15
2023-03-20T05:49:53.804Z,4.32
2023-03-20T05:52:20.398Z,4.82
2023-03-20T05:54:47.432Z,5.07
2023-03-20T05:57:14.026Z,4.75
2023-03-20T05:59:40.799Z,4.70
2023-03-20T06:02:07.467Z,5.63
2023-03-20T06:04:35.003Z,4.43
2023-03-20T06:07:01.604Z,5.03
2023-03-20T06:09:28.185Z,5.05
2023-03-20T06:11:54.707Z,4.78
2023-03-20T06:14:21.262Z,4.45
2023-03-20T06:16:47.977Z,4.20
2023-03-20T06:19:14.557Z,4.40
2023-03-20T06:21:41.113Z,4.90
2023-03-20T06:24:07.802Z,4.47
2023-03-20T06:26:34.315Z,4.70
2023-03-20T06:29:01.598Z,4.95
2023-03-20T06:31:28.214Z,3.97
2023-03-20T06:33:54.790Z,4.50
2023-03-20T06:36:21.306Z,3.70
2023-03-20T06:38:47.862Z,4.18
2023-03-20T06:41:27.781Z,4.55
2023-03-20T06:44:00.457Z,4.63
2023-03-20T06:46:26.970Z,4.13
2023-03-20T06:48:53.524Z,4.53
2023-03-20T06:51:20.098Z,4.80
2023-03-20T06:53:46.675Z,4.28
2023-03-20T06:56:13.500Z,4.30
2023-03-20T06:58:40.075Z,4.60
2023-03-20T07:01:11.306Z,4.35
2023-03-20T07:03:37.851Z,4.45
2023-03-20T07:06:04.914Z,4.30
2023-03-20T07:08:32.570Z,4.88
2023-03-20T07:11:01.283Z,4.72
2023-03-20T07:13:28.340Z,4.65
2023-03-20T07:16:04.046Z,4.00
2023-03-20T07:18:31.584Z,4.38
2023-03-20T07:21:02.370Z,5.25
2023-03-20T07:23:30.756Z,4.05
2023-03-20T07:25:58.247Z,3.50
2023-03-20T07:28:24.928Z,4.70
2023-03-20T07:30:51.917Z,3.83
2023-03-20T07:33:18.606Z,4.28
2023-03-20T07:35:45.350Z,3.78
2023-03-20T07:38:11.903Z,4.10
2023-03-20T07:40:38.431Z,3.65
2023-03-20T07:43:04.987Z,4.15
2023-03-20T07:45:32.760Z,4.13
2023-03-20T07:47:59.413Z,3.33
2023-03-20T07:50:25.924Z,3.65
2023-03-20T07:52:52.427Z,3.80
2023-03-20T07:55:18.933Z,3.65
2023-03-20T07:57:45.572Z,3.67
2023-03-20T08:00:12.740Z,3.70
2023-03-20T08:02:39.258Z,3.63
2023-03-20T08:05:06.309Z,3.22
2023-03-20T08:07:33.122Z,3.15
2023-03-20T08:10:00.105Z,3.50
2023-03-20T08:12:27.013Z,3.58
2023-03-20T08:14:53.604Z,3.25
2023-03-20T08:17:21.897Z,3.25
2023-03-20T08:19:48.522Z,3.08
2023-03-20T08:22:15.139Z,4.05
2023-03-20T08:24:41.725Z,3.03
2023-03-20T08:27:08.471Z,2.97
2023-03-20T08:29:35.759Z,3.13
2023-03-20T08:32:02.277Z,4.18
2023-03-20T08:34:28.826Z,2.88
2023-03-20T08:36:55.671Z,2.90
2023-03-20T08:39:22.314Z,2.58
2023-03-20T08:41:49.690Z,2.97
2023-03-20T08:44:16.492Z,3.15
2023-03-20T08:46:44.782Z,2.65
2023-03-20T08:49:11.317Z,2.80
2023-03-20T08:51:37.804Z,3.53
2023-03-20T08:54:06.058Z,2.65
2023-03-20T08:56:32.614Z,2.92
2023-03-20T08:58:59.186Z,2.90
2023-03-20T09:01:35.313Z,2.92
2023-03-20T09:04:08.836Z,3.78
2023-03-20T09:06:39.904Z,2.83
2023-03-20T09:09:06.744Z,2.85
2023-03-20T09:11:33.787Z,2.72
2023-03-20T09:14:00.691Z,2.60
2023-03-20T09:16:28.236Z,3.10
2023-03-20T09:18:55.152Z,2.80
2023-03-20T09:21:21.692Z,3.05
2023-03-20T09:23:48.206Z,2.42
2023-03-20T09:26:14.724Z,2.10
2023-03-20T09:28:41.253Z,3.10
2023-03-20T09:31:07.834Z,2.47
2023-03-20T09:33:34.431Z,2.38
2023-03-20T09:36:01.248Z,2.72
2023-03-20T09:38:27.822Z,2.30
2023-03-20T09:40:57.578Z,2.58
2023-03-20T09:43:33.083Z,2.88
2023-03-20T09:46:25.860Z,2.33
2023-03-20T09:49:26.496Z,2.58
2023-03-20T09:51:59.120Z,2.25
2023-03-20T09:54:53.535Z,2.60
2023-03-20T09:57:39.395Z,2.38
2023-03-20T10:00:28.354Z,2.20
2023-03-20T10:03:03.402Z,2.17
2023-03-20T10:05:32.470Z,3.08
2023-03-20T10:08:03.044Z,2.30
2023-03-20T10:10:46.642Z,1.88
2023-03-20T10:13:37.157Z,2.20
2023-03-20T10:16:09.552Z,2.20
2023-03-20T10:18:40.712Z,2.60
2023-03-20T10:21:18.596Z,2.25
2023-03-20T10:24:03.777Z,2.65
2023-03-20T10:26:35.083Z,2.83
2023-03-20T10:29:18.910Z,2.00
2023-03-20T10:32:08.817Z,1.77
2023-03-20T10:34:41.811Z,2.28
2023-03-20T10:37:17.178Z,2.47
2023-03-20T10:40:05.985Z,2.40
2023-03-20T10:42:40.902Z,2.28
2023-03-20T10:45:25.788Z,2.30
2023-03-20T10:47:52.723Z,2.70
2023-03-20T10:50:23.886Z,2.28
2023-03-20T10:52:53.837Z,2.35
2023-03-20T10:55:34.941Z,2.65
2023-03-20T10:58:13.420Z,2.92
2023-03-20T11:00:41.149Z,2.40
2023-03-20T11:03:22.440Z,2.83
2023-03-20T11:06:09.295Z,3.30
2023-03-20T11:08:42.519Z,2.35
2023-03-20T11:11:09.756Z,3.05
2023-03-20T11:13:40.125Z,2.15
2023-03-20T11:16:22.079Z,2.53
2023-03-20T11:18:51.078Z,2.75
2023-03-20T11:21:29.186Z,2.50
2023-03-20T11:23:56.201Z,3.13
2023-03-20T11:26:39.072Z,3.25
2023-03-20T11:29:07.934Z,3.00
2023-03-20T11:31:37.374Z,2.50
2023-03-20T11:34:06.950Z,3.22
2023-03-20T11:36:35.526Z,2.78
2023-03-20T11:39:14.525Z,2.80
2023-03-20T11:41:50.178Z,2.35
2023-03-20T11:44:31.732Z,2.90
2023-03-20T11:47:26.271Z,2.50
2023-03-20T11:49:59.518Z,2.80
2023-03-20T11:52:32.929Z,3.42
2023-03-20T11:55:07.000Z,2.60
2023-03-20T11:57:41.889Z,2.92
2023-03-20T12:00:11.439Z,2.80
2023-03-20T12:02:41.295Z,2.90
2023-03-20T12:05:29.987Z,2.88
2023-03-20T12:08:00.967Z,3.30
2023-03-20T12:10:32.918Z,2.80
2023-03-20T12:13:02.907Z,3.00
2023-03-20T12:15:34.246Z,3.15
2023-03-20T12:18:28.989Z,2.45
2023-03-20T12:21:09.667Z,3.03
2023-03-20T12:23:48.162Z,3.22
2023-03-20T12:27:14.081Z,2.60
2023-03-20T12:29:50.146Z,2.80
2023-03-20T12:32:41.609Z,2.72
2023-03-20T12:35:41.213Z,2.53
2023-03-20T12:38:29.684Z,3.10
2023-03-20T12:41:27.479Z,2.97
2023-03-20T12:44:31.746Z,2.90
2023-03-20T12:47:19.889Z,2.55
2023-03-20T12:50:19.358Z,2.35
2023-03-20T12:52:55.213Z,3.03
2023-03-20T12:55:31.617Z,2.70
2023-03-20T12:58:14.658Z,2.60
2023-03-20T13:01:06.214Z,3.38
2023-03-20T13:04:09.626Z,2.60
2023-03-20T13:06:53.341Z,2.30
2023-03-20T13:09:36.686Z,2.72
2023-03-20T13:12:15.437Z,2.00
2023-03-20T13:14:52.735Z,3.00
2023-03-20T13:17:31.752Z,3.05
2023-03-20T13:20:04.453Z,2.63
2023-03-20T13:22:53.835Z,3.22
2023-03-20T13:25:26.200Z,2.40
2023-03-20T13:28:20.975Z,2.45
2023-03-20T13:31:27.087Z,2.00
2023-03-20T13:34:25.845Z,2.20
2023-03-20T13:37:23.882Z,2.38
2023-03-20T13:40:13.908Z,2.72
2023-03-20T13:43:05.400Z,2.08
2023-03-20T13:45:38.540Z,2.70
2023-03-20T13:48:31.095Z,2.58
2023-03-20T13:50:58.700Z,2.47
2023-03-20T13:53:33.514Z,2.20
2023-03-20T13:58:41.168Z,1.88
2023-03-20T14:01:19.810Z,2.40
2023-03-20T14:03:47.333Z,2.15
2023-03-20T14:06:27.972Z,2.22
2023-03-20T14:08:54.669Z,2.38
2023-03-20T14:11:21.242Z,2.17
2023-03-20T14:13:55.322Z,2.30
2023-03-20T14:16:22.566Z,2.08
2023-03-20T14:19:04.586Z,3.00
2023-03-20T14:21:31.268Z,2.53
2023-03-20T14:24:03.340Z,2.05
2023-03-20T14:26:34.592Z,2.50
2023-03-20T14:29:20.417Z,2.75
2023-03-20T14:31:52.128Z,2.35
2023-03-20T14:34:24.657Z,2.45
2023-03-20T14:37:05.682Z,2.35
2023-03-20T14:39:43.950Z,2.58
2023-03-20T14:42:19.722Z,2.10
2023-03-20T14:45:19.237Z,1.92
2023-03-20T14:47:54.774Z,1.77
2023-03-20T14:50:36.719Z,2.13
2023-03-20T14:53:16.181Z,2.17
2023-03-20T14:55:57.979Z,2.03
2023-03-20T14:58:33.522Z,2.00
2023-03-20T15:01:06.356Z,2.25
2023-03-20T15:03:33.696Z,2.43
2023-03-20T15:06:05.261Z,1.95
2023-03-20T15:08:36.049Z,2.30
2023-03-20T15:11:08.782Z,2.17
2023-03-20T15:13:37.650Z,2.60
2023-03-20T15:16:13.501Z,2.53
2023-03-20T15:18:46.457Z,2.38
2023-03-20T15:21:19.968Z,2.22
2023-03-20T15:23:48.094Z,3.20
2023-03-20T15:26:18.864Z,2.22
2023-03-20T15:28:47.011Z,2.65
2023-03-20T15:31:30.256Z,2.45
2023-03-20T15:33:57.800Z,2.60
2023-03-20T15:36:28.350Z,2.78
2023-03-20T15:39:14.362Z,3.60
2023-03-20T15:41:46.317Z,4.45
2023-03-20T15:44:15.910Z,11.85
2023-03-20T15:47:01.372Z,15.73
2023-03-20T15:49:30.555Z,16.33
2023-03-20T15:52:00.819Z,12.10
2023-03-20T15:54:27.729Z,11.20
2023-03-20T15:56:58.172Z,9.63
2023-03-20T15:59:29.275Z,10.30
2023-03-20T16:01:58.205Z,9.85
2023-03-20T16:04:26.154Z,11.15
2023-03-20T16:07:00.498Z,8.75
2023-03-20T16:09:28.319Z,9.55
2023-03-20T16:12:00.142Z,8.55
2023-03-20T16:14:31.592Z,8.32
2023-03-20T16:17:00.355Z,7.50
2023-03-20T16:19:29.060Z,7.95
2023-03-20T16:22:03.362Z,6.22
2023-03-20T16:24:36.591Z,7.13
2023-03-20T16:27:08.405Z,7.03
2023-03-20T16:29:37.018Z,6.30
2023-03-20T16:32:38.617Z,5.55
2023-03-20T16:35:20.057Z,5.53
2023-03-20T16:37:55.479Z,6.72
2023-03-20T16:40:34.119Z,5.95
2023-03-20T16:43:18.660Z,5.63
2023-03-20T16:45:49.175Z,4.90
2023-03-20T16:48:15.626Z,5.50
2023-03-20T16:50:45.302Z,6.53
2023-03-20T16:53:15.820Z,6.03
2023-03-20T16:55:45.721Z,7.57
2023-03-20T16:58:21.801Z,6.25
2023-03-20T17:00:52.887Z,5.60
2023-03-20T17:03:26.011Z,5.85
2023-03-20T17:05:59.575Z,6.30
2023-03-20T17:11:14.510Z,8.40
2023-03-20T17:13:41.793Z,10.13
2023-03-20T17:16:17.972Z,7.68
2023-03-20T17:18:46.445Z,5.53
2023-03-20T17:21:13.885Z,7.60
2023-03-20T17:23:40.910Z,6.72
2023-03-20T17:26:12.798Z,6.40
2023-03-20T17:28:39.806Z,5.30
2023-03-20T17:31:06.685Z,5.43
2023-03-20T17:33:33.853Z,8.98
2023-03-20T17:36:00.916Z,7.35
2023-03-20T17:38:27.766Z,7.20
2023-03-20T17:40:54.353Z,7.78
2023-03-20T17:43:21.099Z,7.38
2023-03-20T17:45:47.909Z,8.43
2023-03-20T17:48:17.892Z,8.25
2023-03-20T17:50:45.859Z,9.18
2023-03-20T17:53:15.769Z,9.18
2023-03-20T17:55:42.381Z,8.73
2023-03-20T17:58:17.139Z,9.68
2023-03-20T18:00:44.684Z,11.00
2023-03-20T18:03:12.044Z,11.90
2023-03-20T18:05:39.655Z,10.30
2023-03-20T18:08:14.127Z,8.30
2023-03-20T18:10:41.186Z,10.38
2023-03-20T18:13:07.871Z,8.93
2023-03-20T18:15:34.538Z,9.57
2023-03-20T18:18:01.221Z,10.73
2023-03-20T18:20:33.431Z,10.50
2023-03-20T18:23:00.219Z,11.55
2023-03-20T18:25:27.402Z,13.50
2023-03-20T18:27:55.978Z,11.90
2023-03-20T18:30:26.043Z,12.98
2023-03-20T18:32:52.760Z,15.27
2023-03-20T18:35:19.283Z,15.52
2023-03-20T18:37:46.030Z,15.68
2023-03-20T18:40:23.262Z,14.60
2023-03-20T18:42:49.805Z,15.65
2023-03-20T18:45:16.949Z,17.65
2023-03-20T18:47:43.512Z,19.20
2023-03-20T18:50:37.511Z,18.83
2023-03-20T18:53:06.502Z,15.88
2023-03-20T18:55:34.076Z,17.63
2023-03-20T18:58:03.775Z,16.98
2023-03-20T19:00:40.575Z,15.60
2023-03-20T19:03:08.296Z,18.52
2023-03-20T19:05:34.881Z,18.70
2023-03-20T19:08:03.195Z,15.25
2023-03-20T19:10:38.826Z,18.05
2023-03-20T19:13:07.469Z,17.50
2023-03-20T19:15:36.369Z,16.60
2023-03-20T19:18:09.224Z,16.75
2023-03-20T19:20:42.147Z,17.05
2023-03-20T19:23:11.133Z,16.15
2023-03-20T19:25:38.517Z,15.65
2023-03-20T19:28:05.528Z,15.13
2023-03-20T19:30:38.219Z,15.57
2023-03-20T19:33:06.912Z,14.63
2023-03-20T19:38:22.130Z,14.77
2023-03-20T19:40:53.099Z,15.43
2023-03-20T19:43:23.080Z,14.05
2023-03-20T19:45:59.304Z,14.32
2023-03-20T19:48:46.004Z,14.15
2023-03-20T19:51:18.228Z,14.57
2023-03-20T19:53:46.009Z,12.75
2023-03-20T19:56:14.333Z,13.55
2023-03-20T19:58:41.100Z,12.05
2023-03-20T20:01:15.087Z,12.65
2023-03-20T20:03:42.258Z,13.30
2023-03-20T20:06:08.833Z,12.48
2023-03-20T20:08:46.909Z,12.05
2023-03-20T20:11:15.504Z,13.30
2023-03-20T20:14:04.086Z,11.43
2023-03-20T20:16:29.636Z,11.77
2023-03-20T20:18:56.209Z,12.05
2023-03-20T20:24:09.294Z,11.32
2023-03-20T20:26:41.245Z,10.68
2023-03-20T20:29:14.382Z,11.30
2023-03-20T20:31:40.990Z,10.95
2023-03-20T20:35:07.372Z,11.00
2023-03-20T20:39:41.010Z,9.65
2023-03-20T20:42:07.617Z,10.48
2023-03-20T20:44:34.654Z,10.77
2023-03-20T20:47:01.205Z,9.93
2023-03-20T20:49:27.783Z,9.60
2023-03-20T20:51:54.339Z,9.70
2023-03-20T20:54:21.298Z,8.98
2023-03-20T20:56:47.847Z,8.82
2023-03-20T20:59:14.423Z,9.20
2023-03-20T21:01:41.144Z,9.93
2023-03-20T21:04:07.962Z,7.93
2023-03-20T21:07:05.757Z,8.25
2023-03-20T21:09:21.030Z,8.55
2023-03-20T21:11:47.661Z,7.75
2023-03-20T21:14:14.498Z,9.18
2023-03-20T21:16:40.996Z,8.70
2023-03-20T21:19:07.695Z,8.85
2023-03-20T21:21:35.661Z,8.18
2023-03-20T21:24:02.661Z,7.95
2023-03-20T21:26:29.344Z,8.88
2023-03-20T21:28:55.914Z,8.63
2023-03-20T21:31:30.878Z,8.50
2023-03-20T21:33:57.877Z,9.13
2023-03-20T21:36:24.873Z,7.82
2023-03-20T21:39:07.786Z,9.05
2023-03-20T21:41:37.626Z,9.75
2023-03-20T21:44:05.554Z,9.07
2023-03-20T22:03:33.714Z,8.43
2023-03-20T22:15:11.925Z,8.00
2023-03-20T22:20:44.734Z,8.25
2023-03-20T22:26:18.282Z,8.60
2023-03-20T22:34:44.974Z,8.25
2023-03-20T22:37:42.570Z,7.70
2023-03-20T22:45:16.250Z,8.00
2023-03-20T22:47:42.940Z,7.25
2023-03-20T22:50:10.115Z,7.43
2023-03-20T22:52:49.140Z,7.18
2023-03-20T22:55:17.016Z,7.32
2023-03-20T22:57:52.837Z,7.28
2023-03-20T23:00:22.801Z,7.60
2023-03-20T23:02:52.891Z,6.97
2023-03-20T23:05:19.548Z,6.85
2023-03-20T23:07:46.166Z,6.68
2023-03-20T23:10:15.592Z,6.80
2023-03-20T23:12:44.066Z,6.72
2023-03-20T23:15:11.178Z,6.15
2023-03-20T23:17:37.770Z,6.20
2023-03-20T23:20:12.627Z,6.85
2023-03-20T23:22:39.810Z,6.28
2023-03-20T23:25:16.446Z,6.10
2023-03-20T23:27:47.420Z,6.40
2023-03-20T23:30:14.782Z,5.53
2023-03-20T23:32:41.538Z,6.10
2023-03-20T23:35:08.987Z,5.45
2023-03-20T23:37:36.260Z,6.38
2023-03-20T23:40:04.529Z,5.53
2023-03-20T23:42:31.380Z,6.00
2023-03-20T23:45:04.334Z,5.13
2023-03-20T23:50:30.003Z,5.35
2023-03-20T23:53:13.129Z,5.10
2023-03-20T23:55:46.227Z,5.30
2023-03-20T23:58:13.161Z,5.13
